Terminal Aerodrome Forecast
Issued by NWS Sterling, VA

Home | Current Version | Previous Version | Text Only | Print | Product List | Glossary On
Versions: 1 2 3 4 5 6 7 8 9 10 11 12 13 14 15 16 17 18 19 20 21 22 23 24 25
000
FTUS41 KLWX 232000 AAB
TAFIAD
TAF AMD
KIAD 232016Z 2320/2424 09005KT 6SM -SHRA SCT005 BKN040 OVC060
      TEMPO 2320/2321 5SM -RA
     FM232300 09005KT P6SM OVC025
     FM240300 09006KT P6SM BKN015
     FM241400 06006KT P6SM SCT050=

USA.gov is the U.S. government's official web portal to all federal, state and local government web resources and services.